AFR1530 LFPG-DAOO
Flight info
| Callsign | AFR1530 |
|---|---|
| Flight time | 2h 4m |
| Altitude | 39000 |
| Route | ERIXU DCT ETAMO DCT GUERE DCT AGN DCT ANETO DCT TURUV DCT GRAUS DCT LOBAR DCT SEROX DCT CASPE DCT MLA DCT CRETA DCT RIMES DCT SAURA DCT TATOS DCT PLANA DCT VLC DCT RIPUX DCT SUMMO DCT MAGAL DCT LIMTU DCT RINDI DCT HAMRA UA34 MOS |
| Aircraft | A320/M-SDE2E3FGIJ1RWY/HB1 |
Departure
| Time | 2026-04-22 07:04 |
|---|---|
| Airport | Charles de Gaulle International Airport (LFPG) |
Arrival
| Time | 2026-04-22 09:08 |
|---|---|
| Airport | Oran Es-Sénia (Ahmed Ben Bella) International Airport (DAOO) |
| Time | Latitude | Longitude | Altitude | Speed | Heading |
|---|---|---|---|---|---|
| 2026-04-22 06:26 | 49.00700 | 2.57357 | 355 ft | 0 kts | 159° |
| 2026-04-22 06:53 | 49.00704 | 2.57354 | 354 ft | 3 kts | 160° |
| 2026-04-22 06:53 | 49.00729 | 2.57343 | 357 ft | 4 kts | 177° |
| 2026-04-22 06:54 | 49.00753 | 2.57349 | 358 ft | 4 kts | 229° |
| 2026-04-22 06:54 | 49.00759 | 2.57363 | 362 ft | 0 kts | 265° |
| 2026-04-22 06:57 | 49.00758 | 2.57363 | 354 ft | 0 kts | 265° |
| 2026-04-22 06:57 | 49.00756 | 2.57323 | 354 ft | 12 kts | 265° |
| 2026-04-22 06:57 | 49.00706 | 2.57213 | 361 ft | 12 kts | 219° |
| 2026-04-22 06:58 | 49.00667 | 2.57082 | 354 ft | 17 kts | 256° |
| 2026-04-22 06:58 | 49.00652 | 2.56910 | 354 ft | 16 kts | 265° |
| 2026-04-22 06:58 | 49.00643 | 2.56748 | 354 ft | 17 kts | 265° |
| 2026-04-22 06:58 | 49.00633 | 2.56558 | 354 ft | 17 kts | 265° |
| 2026-04-22 06:59 | 49.00623 | 2.56383 | 361 ft | 16 kts | 265° |
| 2026-04-22 06:59 | 49.00614 | 2.56220 | 354 ft | 18 kts | 265° |
| 2026-04-22 06:59 | 49.00588 | 2.56006 | 359 ft | 20 kts | 251° |
| 2026-04-22 06:59 | 49.00565 | 2.55809 | 359 ft | 17 kts | 266° |
| 2026-04-22 07:00 | 49.00557 | 2.55633 | 354 ft | 16 kts | 265° |
| 2026-04-22 07:00 | 49.00549 | 2.55470 | 358 ft | 15 kts | 264° |
| 2026-04-22 07:00 | 49.00452 | 2.55335 | 358 ft | 24 kts | 180° |
| 2026-04-22 07:00 | 49.00302 | 2.55392 | 360 ft | 22 kts | 163° |
| 2026-04-22 07:01 | 49.00151 | 2.55459 | 356 ft | 23 kts | 163° |
| 2026-04-22 07:01 | 48.99990 | 2.55532 | 357 ft | 24 kts | 166° |
| 2026-04-22 07:01 | 48.99871 | 2.55643 | 358 ft | 19 kts | 133° |
| 2026-04-22 07:01 | 48.99795 | 2.55787 | 356 ft | 17 kts | 158° |
| 2026-04-22 07:02 | 48.99708 | 2.55812 | 354 ft | 5 kts | 173° |
| 2026-04-22 07:02 | 48.99668 | 2.55818 | 360 ft | 15 kts | 175° |
| 2026-04-22 07:03 | 48.99608 | 2.55927 | 353 ft | 18 kts | 92° |
| 2026-04-22 07:03 | 48.99633 | 2.56445 | 356 ft | 83 kts | 85° |
| 2026-04-22 07:03 | 48.99696 | 2.57637 | 355 ft | 139 kts | 85° |
| 2026-04-22 07:03 | 48.99795 | 2.59227 | 751 ft | 150 kts | 85° |
| 2026-04-22 07:04 | 48.99882 | 2.60822 | 1500 ft | 151 kts | 86° |
| 2026-04-22 07:04 | 48.99963 | 2.62401 | 2305 ft | 149 kts | 87° |
| 2026-04-22 07:04 | 49.00016 | 2.63441 | 2806 ft | 148 kts | 87° |
| 2026-04-22 07:04 | 49.00123 | 2.65504 | 3678 ft | 150 kts | 87° |
| 2026-04-22 07:05 | 49.00210 | 2.67203 | 3993 ft | 171 kts | 87° |
| 2026-04-22 07:05 | 49.00309 | 2.69147 | 4244 ft | 197 kts | 86° |
| 2026-04-22 07:05 | 49.00382 | 2.70583 | 4496 ft | 213 kts | 86° |
| 2026-04-22 07:05 | 49.00502 | 2.72941 | 5008 ft | 231 kts | 86° |
| 2026-04-22 07:06 | 49.00628 | 2.75427 | 5787 ft | 239 kts | 86° |
| 2026-04-22 07:06 | 49.00714 | 2.77995 | 6634 ft | 245 kts | 93° |
| 2026-04-22 07:06 | 49.00515 | 2.80595 | 7421 ft | 250 kts | 97° |
| 2026-04-22 07:06 | 49.00243 | 2.83237 | 8204 ft | 255 kts | 98° |
| 2026-04-22 07:07 | 48.99941 | 2.85934 | 8994 ft | 261 kts | 98° |
| 2026-04-22 07:07 | 48.99631 | 2.88686 | 9767 ft | 267 kts | 98° |
| 2026-04-22 07:07 | 48.99319 | 2.91503 | 10482 ft | 274 kts | 97° |
| 2026-04-22 07:07 | 48.98996 | 2.94497 | 10748 ft | 297 kts | 97° |
| 2026-04-22 07:08 | 48.98499 | 2.97643 | 11218 ft | 313 kts | 110° |
| 2026-04-22 07:08 | 48.97272 | 3.00442 | 11863 ft | 326 kts | 133° |
| 2026-04-22 07:08 | 48.95360 | 3.02386 | 12520 ft | 339 kts | 156° |
| 2026-04-22 07:08 | 48.93042 | 3.03015 | 13172 ft | 351 kts | 181° |
| 2026-04-22 07:09 | 48.90659 | 3.02102 | 13792 ft | 360 kts | 208° |
| 2026-04-22 07:09 | 48.88735 | 2.99702 | 14434 ft | 361 kts | 234° |
| 2026-04-22 07:09 | 48.87652 | 2.96304 | 15101 ft | 356 kts | 259° |
| 2026-04-22 07:09 | 48.87201 | 2.92616 | 15820 ft | 355 kts | 263° |
| 2026-04-22 07:10 | 48.86799 | 2.88910 | 16577 ft | 355 kts | 264° |
| 2026-04-22 07:10 | 48.86413 | 2.85208 | 17302 ft | 355 kts | 265° |
| 2026-04-22 07:10 | 48.86029 | 2.81505 | 18046 ft | 355 kts | 265° |
| 2026-04-22 07:10 | 48.85639 | 2.77796 | 18729 ft | 356 kts | 265° |
| 2026-04-22 07:11 | 48.85239 | 2.74080 | 19334 ft | 357 kts | 265° |
| 2026-04-22 07:11 | 48.84837 | 2.70360 | 19932 ft | 358 kts | 265° |
| 2026-04-22 07:11 | 48.84425 | 2.66625 | 20533 ft | 360 kts | 264° |
| 2026-04-22 07:11 | 48.83746 | 2.62936 | 21111 ft | 368 kts | 254° |
| 2026-04-22 07:12 | 48.82594 | 2.59416 | 21671 ft | 377 kts | 243° |
| 2026-04-22 07:12 | 48.81095 | 2.56166 | 22199 ft | 382 kts | 240° |
| 2026-04-22 07:12 | 48.79548 | 2.52885 | 22763 ft | 384 kts | 240° |
| 2026-04-22 07:12 | 48.77989 | 2.49578 | 23298 ft | 386 kts | 241° |
| 2026-04-22 07:13 | 48.76420 | 2.46242 | 23826 ft | 389 kts | 241° |
| 2026-04-22 07:13 | 48.74844 | 2.42890 | 24260 ft | 392 kts | 240° |
| 2026-04-22 07:13 | 48.73053 | 2.39707 | 24701 ft | 402 kts | 231° |
| 2026-04-22 07:13 | 48.70852 | 2.37011 | 25140 ft | 413 kts | 219° |
| 2026-04-22 07:14 | 48.68369 | 2.34751 | 25561 ft | 417 kts | 217° |
| 2026-04-22 07:14 | 48.65863 | 2.32514 | 25977 ft | 419 kts | 217° |
| 2026-04-22 07:14 | 48.63343 | 2.30263 | 26396 ft | 421 kts | 217° |
| 2026-04-22 07:14 | 48.60820 | 2.28005 | 26813 ft | 422 kts | 217° |
| 2026-04-22 07:15 | 48.58296 | 2.25739 | 27232 ft | 423 kts | 218° |
| 2026-04-22 07:15 | 48.55756 | 2.23455 | 27617 ft | 425 kts | 218° |
| 2026-04-22 07:15 | 48.53142 | 2.21438 | 27980 ft | 434 kts | 208° |
| 2026-04-22 07:15 | 48.50216 | 2.20074 | 28337 ft | 445 kts | 198° |
| 2026-04-22 07:16 | 48.47107 | 2.19526 | 28691 ft | 456 kts | 186° |
| 2026-04-22 07:16 | 48.43904 | 2.19717 | 29025 ft | 462 kts | 182° |
| 2026-04-22 07:16 | 48.40680 | 2.20000 | 29355 ft | 464 kts | 182° |
| 2026-04-22 07:16 | 48.37455 | 2.20276 | 29760 ft | 464 kts | 182° |
| 2026-04-22 07:17 | 48.34222 | 2.20546 | 30106 ft | 466 kts | 182° |
| 2026-04-22 07:17 | 48.30982 | 2.20809 | 30400 ft | 468 kts | 182° |
| 2026-04-22 07:17 | 48.27728 | 2.21275 | 30666 ft | 473 kts | 176° |
| 2026-04-22 07:17 | 48.24468 | 2.22058 | 30938 ft | 475 kts | 176° |
| 2026-04-22 07:18 | 48.21204 | 2.22850 | 31214 ft | 476 kts | 176° |
| 2026-04-22 07:18 | 48.17924 | 2.23645 | 31477 ft | 476 kts | 176° |
| 2026-04-22 07:18 | 48.14652 | 2.24438 | 31753 ft | 477 kts | 176° |
| 2026-04-22 07:18 | 48.11370 | 2.25229 | 32003 ft | 478 kts | 176° |
| 2026-04-22 07:19 | 48.08130 | 2.25938 | 32238 ft | 476 kts | 180° |
| 2026-04-22 07:19 | 48.04830 | 2.26211 | 32457 ft | 474 kts | 183° |
| 2026-04-22 07:19 | 48.01535 | 2.26422 | 32725 ft | 474 kts | 184° |
| 2026-04-22 07:19 | 47.98236 | 2.26627 | 33018 ft | 473 kts | 184° |
| 2026-04-22 07:20 | 47.94957 | 2.26829 | 33364 ft | 471 kts | 184° |
| 2026-04-22 07:20 | 47.91692 | 2.27035 | 33697 ft | 469 kts | 184° |
| 2026-04-22 07:20 | 47.88433 | 2.27244 | 34024 ft | 467 kts | 184° |
| 2026-04-22 07:20 | 47.85193 | 2.27451 | 34313 ft | 466 kts | 184° |
| 2026-04-22 07:21 | 47.81953 | 2.27655 | 34551 ft | 465 kts | 184° |
| 2026-04-22 07:21 | 47.78715 | 2.27860 | 34765 ft | 466 kts | 184° |
| 2026-04-22 07:21 | 47.75479 | 2.28067 | 34985 ft | 465 kts | 184° |
| 2026-04-22 07:21 | 47.72249 | 2.28272 | 35228 ft | 464 kts | 184° |
| 2026-04-22 07:22 | 47.69025 | 2.28472 | 35427 ft | 464 kts | 184° |
| 2026-04-22 07:22 | 47.65799 | 2.28670 | 35621 ft | 464 kts | 183° |
| 2026-04-22 07:22 | 47.62602 | 2.28866 | 35802 ft | 465 kts | 183° |
| 2026-04-22 07:22 | 47.59374 | 2.29068 | 35976 ft | 465 kts | 183° |
| 2026-04-22 07:23 | 47.56140 | 2.29272 | 36141 ft | 465 kts | 183° |
| 2026-04-22 07:23 | 47.52900 | 2.29475 | 36335 ft | 465 kts | 183° |
| 2026-04-22 07:23 | 47.49664 | 2.29679 | 36513 ft | 465 kts | 182° |
| 2026-04-22 07:23 | 47.46429 | 2.29885 | 36681 ft | 465 kts | 182° |
| 2026-04-22 07:24 | 47.43192 | 2.30090 | 36833 ft | 466 kts | 182° |
| 2026-04-22 07:24 | 47.39959 | 2.30290 | 37011 ft | 466 kts | 182° |
| 2026-04-22 07:24 | 47.36711 | 2.30488 | 37094 ft | 468 kts | 182° |
| 2026-04-22 07:25 | 47.30190 | 2.30896 | 37095 ft | 469 kts | 182° |
| 2026-04-22 07:25 | 47.23701 | 2.31308 | 37090 ft | 469 kts | 182° |
| 2026-04-22 07:26 | 47.17180 | 2.31720 | 37090 ft | 469 kts | 182° |
| 2026-04-22 07:26 | 47.10662 | 2.32117 | 37085 ft | 468 kts | 182° |
| 2026-04-22 07:27 | 47.04154 | 2.32514 | 37090 ft | 468 kts | 182° |
| 2026-04-22 07:27 | 46.97642 | 2.32915 | 37084 ft | 468 kts | 182° |
| 2026-04-22 07:28 | 46.87870 | 2.33506 | 37089 ft | 468 kts | 182° |
| 2026-04-22 07:28 | 46.81506 | 2.32770 | 37087 ft | 456 kts | 199° |
| 2026-04-22 07:29 | 46.75391 | 2.30420 | 37086 ft | 454 kts | 200° |
| 2026-04-22 07:29 | 46.69266 | 2.28050 | 37081 ft | 455 kts | 200° |
| 2026-04-22 07:30 | 46.63147 | 2.25709 | 37072 ft | 455 kts | 200° |
| 2026-04-22 07:30 | 46.57026 | 2.23382 | 37066 ft | 454 kts | 200° |
| 2026-04-22 07:31 | 46.50909 | 2.21048 | 37056 ft | 454 kts | 200° |
| 2026-04-22 07:31 | 46.44833 | 2.18732 | 37046 ft | 454 kts | 200° |
| 2026-04-22 07:32 | 46.38716 | 2.16411 | 37046 ft | 454 kts | 200° |
| 2026-04-22 07:32 | 46.32600 | 2.14096 | 37039 ft | 454 kts | 200° |
| 2026-04-22 07:33 | 46.26483 | 2.11779 | 37032 ft | 454 kts | 200° |
| 2026-04-22 07:33 | 46.20366 | 2.09457 | 37033 ft | 454 kts | 200° |
| 2026-04-22 07:34 | 46.14449 | 2.06430 | 37011 ft | 450 kts | 206° |
| 2026-04-22 07:34 | 46.08636 | 2.03230 | 37021 ft | 450 kts | 206° |
| 2026-04-22 07:35 | 46.02785 | 2.00031 | 37017 ft | 450 kts | 206° |
| 2026-04-22 07:35 | 45.96927 | 1.96825 | 37008 ft | 449 kts | 206° |
| 2026-04-22 07:36 | 45.91094 | 1.93639 | 37006 ft | 448 kts | 206° |
| 2026-04-22 07:36 | 45.85267 | 1.90456 | 37012 ft | 447 kts | 206° |
| 2026-04-22 07:37 | 45.79459 | 1.87286 | 36993 ft | 447 kts | 206° |
| 2026-04-22 07:37 | 45.73680 | 1.84152 | 36987 ft | 446 kts | 206° |
| 2026-04-22 07:38 | 45.67875 | 1.81003 | 36982 ft | 446 kts | 205° |
| 2026-04-22 07:38 | 45.62072 | 1.77869 | 36982 ft | 446 kts | 205° |
| 2026-04-22 07:39 | 45.56264 | 1.74734 | 36963 ft | 446 kts | 205° |
| 2026-04-22 07:39 | 45.50458 | 1.71618 | 36971 ft | 446 kts | 205° |
| 2026-04-22 07:40 | 45.44653 | 1.68511 | 36957 ft | 446 kts | 205° |
| 2026-04-22 07:40 | 45.38836 | 1.65386 | 36957 ft | 446 kts | 205° |
| 2026-04-22 07:41 | 45.33022 | 1.62276 | 36955 ft | 446 kts | 205° |
| 2026-04-22 07:41 | 45.27207 | 1.59175 | 36961 ft | 446 kts | 205° |
| 2026-04-22 07:42 | 45.21397 | 1.56070 | 36968 ft | 446 kts | 205° |
| 2026-04-22 07:42 | 45.15616 | 1.53000 | 36948 ft | 447 kts | 205° |
| 2026-04-22 07:43 | 45.09775 | 1.49912 | 36951 ft | 448 kts | 205° |
| 2026-04-22 07:43 | 45.03924 | 1.46822 | 36959 ft | 449 kts | 205° |
| 2026-04-22 07:44 | 44.98062 | 1.43726 | 36919 ft | 449 kts | 205° |
| 2026-04-22 07:44 | 44.92200 | 1.40637 | 36923 ft | 450 kts | 204° |
| 2026-04-22 07:45 | 44.86365 | 1.37578 | 36929 ft | 450 kts | 204° |
| 2026-04-22 07:45 | 44.80487 | 1.34498 | 36922 ft | 450 kts | 204° |
| 2026-04-22 07:46 | 44.74610 | 1.31424 | 36931 ft | 451 kts | 204° |
| 2026-04-22 07:46 | 44.68719 | 1.28354 | 36934 ft | 451 kts | 204° |
| 2026-04-22 07:47 | 44.62828 | 1.25279 | 36929 ft | 451 kts | 204° |
| 2026-04-22 07:47 | 44.56927 | 1.22210 | 36920 ft | 452 kts | 204° |
| 2026-04-22 07:48 | 44.51027 | 1.19154 | 36927 ft | 452 kts | 204° |
| 2026-04-22 07:48 | 44.45116 | 1.16106 | 36926 ft | 452 kts | 204° |
| 2026-04-22 07:49 | 44.39250 | 1.13080 | 36912 ft | 452 kts | 204° |
| 2026-04-22 07:49 | 44.33344 | 1.10038 | 36916 ft | 452 kts | 204° |
| 2026-04-22 07:50 | 44.27442 | 1.07005 | 36918 ft | 452 kts | 204° |
| 2026-04-22 07:50 | 44.21529 | 1.03967 | 36909 ft | 453 kts | 205° |
| 2026-04-22 07:51 | 44.15607 | 1.00931 | 36918 ft | 453 kts | 204° |
| 2026-04-22 07:51 | 44.10679 | 0.98413 | 36932 ft | 453 kts | 204° |
| 2026-04-22 07:52 | 44.04753 | 0.95387 | 36924 ft | 453 kts | 204° |
| 2026-04-22 07:52 | 43.98821 | 0.92371 | 36916 ft | 454 kts | 204° |
| 2026-04-22 07:53 | 43.92884 | 0.89364 | 36918 ft | 454 kts | 204° |
| 2026-04-22 07:53 | 43.86837 | 0.86749 | 36921 ft | 459 kts | 195° |
| 2026-04-22 07:54 | 43.80607 | 0.85087 | 36912 ft | 460 kts | 194° |
| 2026-04-22 07:54 | 43.74321 | 0.83413 | 36912 ft | 460 kts | 194° |
| 2026-04-22 07:55 | 43.68025 | 0.81735 | 36915 ft | 460 kts | 195° |
| 2026-04-22 07:55 | 43.61727 | 0.80054 | 36909 ft | 461 kts | 195° |
| 2026-04-22 07:56 | 43.55432 | 0.78376 | 36908 ft | 461 kts | 194° |
| 2026-04-22 07:56 | 43.49124 | 0.76708 | 36913 ft | 461 kts | 194° |
| 2026-04-22 07:57 | 43.42854 | 0.75054 | 36898 ft | 462 kts | 195° |
| 2026-04-22 07:57 | 43.36527 | 0.73376 | 36891 ft | 463 kts | 195° |
| 2026-04-22 07:58 | 43.30182 | 0.71702 | 36889 ft | 464 kts | 195° |
| 2026-04-22 07:58 | 43.23838 | 0.70038 | 36897 ft | 465 kts | 195° |
| 2026-04-22 07:59 | 43.17472 | 0.68366 | 36898 ft | 466 kts | 195° |
| 2026-04-22 07:59 | 43.11101 | 0.66703 | 36903 ft | 466 kts | 195° |
| 2026-04-22 08:00 | 43.04716 | 0.65044 | 36918 ft | 467 kts | 195° |
| 2026-04-22 08:00 | 42.98372 | 0.63395 | 36932 ft | 467 kts | 195° |
| 2026-04-22 08:01 | 42.91987 | 0.61725 | 36938 ft | 466 kts | 195° |
| 2026-04-22 08:01 | 42.85603 | 0.60058 | 36958 ft | 467 kts | 195° |
| 2026-04-22 08:02 | 42.79224 | 0.58406 | 36964 ft | 467 kts | 195° |
| 2026-04-22 08:02 | 42.72844 | 0.56769 | 36970 ft | 466 kts | 195° |
| 2026-04-22 08:03 | 42.66469 | 0.55124 | 36985 ft | 467 kts | 195° |
| 2026-04-22 08:03 | 42.60087 | 0.53488 | 36983 ft | 467 kts | 195° |
| 2026-04-22 08:04 | 42.53738 | 0.51853 | 36996 ft | 467 kts | 195° |
| 2026-04-22 08:04 | 42.47353 | 0.50216 | 37002 ft | 467 kts | 194° |
| 2026-04-22 08:05 | 42.40969 | 0.48588 | 37007 ft | 466 kts | 194° |
| 2026-04-22 08:05 | 42.34585 | 0.46957 | 36995 ft | 466 kts | 195° |
| 2026-04-22 08:06 | 42.28208 | 0.45330 | 36993 ft | 466 kts | 194° |
| 2026-04-22 08:06 | 42.21867 | 0.43720 | 36986 ft | 466 kts | 194° |
| 2026-04-22 08:07 | 42.15502 | 0.42103 | 36983 ft | 465 kts | 195° |
| 2026-04-22 08:07 | 42.09132 | 0.40488 | 36990 ft | 465 kts | 195° |
| 2026-04-22 08:08 | 42.02768 | 0.38874 | 36989 ft | 465 kts | 195° |
| 2026-04-22 08:08 | 41.96406 | 0.37272 | 36981 ft | 464 kts | 194° |
| 2026-04-22 08:09 | 41.90063 | 0.35676 | 36992 ft | 463 kts | 194° |
| 2026-04-22 08:09 | 41.83764 | 0.34099 | 37001 ft | 463 kts | 194° |
| 2026-04-22 08:10 | 41.77427 | 0.32511 | 36989 ft | 462 kts | 194° |
| 2026-04-22 08:10 | 41.71103 | 0.30919 | 36994 ft | 461 kts | 194° |
| 2026-04-22 08:11 | 41.64781 | 0.29348 | 36996 ft | 461 kts | 194° |
| 2026-04-22 08:11 | 41.58474 | 0.27779 | 36998 ft | 461 kts | 194° |
| 2026-04-22 08:12 | 41.52208 | 0.26219 | 36993 ft | 460 kts | 194° |
| 2026-04-22 08:12 | 41.45908 | 0.24658 | 36999 ft | 460 kts | 194° |
| 2026-04-22 08:13 | 41.39610 | 0.23094 | 36995 ft | 460 kts | 194° |
| 2026-04-22 08:13 | 41.33301 | 0.21528 | 36986 ft | 460 kts | 194° |
| 2026-04-22 08:14 | 41.27001 | 0.19973 | 36996 ft | 460 kts | 194° |
| 2026-04-22 08:14 | 41.20732 | 0.18439 | 36991 ft | 460 kts | 194° |
| 2026-04-22 08:15 | 41.14427 | 0.16899 | 36997 ft | 460 kts | 194° |
| 2026-04-22 08:15 | 41.08294 | 0.14636 | 36986 ft | 456 kts | 201° |
| 2026-04-22 08:16 | 41.02224 | 0.12179 | 36991 ft | 456 kts | 201° |
| 2026-04-22 08:16 | 40.96139 | 0.09749 | 36989 ft | 456 kts | 201° |
| 2026-04-22 08:17 | 40.90064 | 0.07308 | 36982 ft | 456 kts | 201° |
| 2026-04-22 08:17 | 40.84027 | 0.04888 | 36984 ft | 456 kts | 201° |
| 2026-04-22 08:18 | 40.77942 | 0.02451 | 36987 ft | 456 kts | 201° |
| 2026-04-22 08:18 | 40.71859 | 0.00016 | 36981 ft | 456 kts | 201° |
| 2026-04-22 08:19 | 40.65782 | -0.02415 | 36983 ft | 456 kts | 200° |
| 2026-04-22 08:19 | 40.59693 | -0.04842 | 36996 ft | 456 kts | 200° |
| 2026-04-22 08:20 | 40.53622 | -0.07249 | 37016 ft | 456 kts | 200° |
| 2026-04-22 08:20 | 40.47591 | -0.09648 | 37032 ft | 456 kts | 200° |
| 2026-04-22 08:21 | 40.41522 | -0.12057 | 37033 ft | 456 kts | 200° |
| 2026-04-22 08:21 | 40.35443 | -0.14449 | 37045 ft | 456 kts | 200° |
| 2026-04-22 08:22 | 40.29360 | -0.16843 | 37051 ft | 456 kts | 200° |
| 2026-04-22 08:22 | 40.23277 | -0.19239 | 37034 ft | 456 kts | 200° |
| 2026-04-22 08:23 | 40.17187 | -0.21638 | 37033 ft | 456 kts | 200° |
| 2026-04-22 08:23 | 40.11107 | -0.24027 | 37022 ft | 456 kts | 200° |
| 2026-04-22 08:24 | 40.05012 | -0.26411 | 36990 ft | 457 kts | 200° |
| 2026-04-22 08:24 | 39.98960 | -0.28775 | 36987 ft | 457 kts | 200° |
| 2026-04-22 08:25 | 39.92873 | -0.31148 | 36996 ft | 456 kts | 200° |
| 2026-04-22 08:25 | 39.86780 | -0.33519 | 37000 ft | 456 kts | 200° |
| 2026-04-22 08:26 | 39.80700 | -0.35881 | 37003 ft | 456 kts | 200° |
| 2026-04-22 08:26 | 39.74613 | -0.38241 | 36995 ft | 456 kts | 200° |
| 2026-04-22 08:27 | 39.68523 | -0.40601 | 37003 ft | 457 kts | 200° |
| 2026-04-22 08:27 | 39.62423 | -0.42955 | 37009 ft | 457 kts | 200° |
| 2026-04-22 08:28 | 39.56328 | -0.45306 | 37011 ft | 457 kts | 200° |
| 2026-04-22 08:28 | 39.50213 | -0.47426 | 37015 ft | 460 kts | 192° |
| 2026-04-22 08:29 | 39.43770 | -0.47435 | 37009 ft | 468 kts | 174° |
| 2026-04-22 08:29 | 39.37321 | -0.46242 | 37008 ft | 468 kts | 175° |
| 2026-04-22 08:30 | 39.30870 | -0.45078 | 36996 ft | 468 kts | 175° |
| 2026-04-22 08:30 | 39.24452 | -0.43933 | 37003 ft | 468 kts | 175° |
| 2026-04-22 08:31 | 39.18003 | -0.42782 | 37003 ft | 468 kts | 175° |
| 2026-04-22 08:32 | 39.08335 | -0.41032 | 37022 ft | 468 kts | 175° |
| 2026-04-22 08:32 | 39.01867 | -0.39862 | 37049 ft | 468 kts | 175° |
| 2026-04-22 08:33 | 38.95420 | -0.38699 | 37068 ft | 468 kts | 175° |
| 2026-04-22 08:33 | 38.88965 | -0.37541 | 37082 ft | 468 kts | 175° |
| 2026-04-22 08:34 | 38.82520 | -0.36397 | 37082 ft | 467 kts | 175° |
| 2026-04-22 08:34 | 38.76115 | -0.35263 | 37085 ft | 468 kts | 175° |
| 2026-04-22 08:35 | 38.69664 | -0.34115 | 37077 ft | 468 kts | 175° |
| 2026-04-22 08:35 | 38.63214 | -0.32965 | 36986 ft | 468 kts | 175° |
| 2026-04-22 08:36 | 38.56764 | -0.31821 | 36987 ft | 468 kts | 175° |
| 2026-04-22 08:36 | 38.50306 | -0.30679 | 36985 ft | 468 kts | 175° |
| 2026-04-22 08:37 | 38.44940 | -0.29733 | 36986 ft | 468 kts | 175° |
| 2026-04-22 08:37 | 38.37440 | -0.28413 | 36986 ft | 468 kts | 175° |
| 2026-04-22 08:38 | 38.30976 | -0.27271 | 36987 ft | 468 kts | 175° |
| 2026-04-22 08:38 | 38.25615 | -0.26320 | 36991 ft | 468 kts | 175° |
| 2026-04-22 08:39 | 38.19159 | -0.25172 | 36994 ft | 468 kts | 175° |
| 2026-04-22 08:39 | 38.12692 | -0.24019 | 36985 ft | 469 kts | 174° |
| 2026-04-22 08:40 | 38.06229 | -0.22871 | 36990 ft | 469 kts | 175° |
| 2026-04-22 08:40 | 37.99768 | -0.21747 | 36992 ft | 469 kts | 175° |
| 2026-04-22 08:41 | 37.93305 | -0.20628 | 36983 ft | 469 kts | 175° |
| 2026-04-22 08:41 | 37.86833 | -0.19499 | 36990 ft | 469 kts | 175° |
| 2026-04-22 08:42 | 37.80403 | -0.18379 | 36995 ft | 469 kts | 175° |
| 2026-04-22 08:42 | 37.73928 | -0.17256 | 37002 ft | 469 kts | 175° |
| 2026-04-22 08:43 | 37.67453 | -0.16135 | 36994 ft | 470 kts | 174° |
| 2026-04-22 08:43 | 37.60972 | -0.15018 | 36998 ft | 470 kts | 174° |
| 2026-04-22 08:44 | 37.54475 | -0.13892 | 37002 ft | 470 kts | 174° |
| 2026-04-22 08:44 | 37.47994 | -0.12777 | 37002 ft | 470 kts | 175° |
| 2026-04-22 08:45 | 37.41512 | -0.11663 | 36995 ft | 470 kts | 174° |
| 2026-04-22 08:45 | 37.35072 | -0.10553 | 36996 ft | 470 kts | 174° |
| 2026-04-22 08:46 | 37.28588 | -0.09434 | 37001 ft | 470 kts | 174° |
| 2026-04-22 08:46 | 37.22107 | -0.08324 | 36991 ft | 470 kts | 174° |
| 2026-04-22 08:47 | 37.15628 | -0.07215 | 36988 ft | 470 kts | 174° |
| 2026-04-22 08:47 | 37.09138 | -0.06107 | 36999 ft | 470 kts | 174° |
| 2026-04-22 08:48 | 37.02642 | -0.04999 | 37009 ft | 471 kts | 174° |
| 2026-04-22 08:48 | 36.96144 | -0.03894 | 37008 ft | 471 kts | 174° |
| 2026-04-22 08:49 | 36.89682 | -0.02794 | 37016 ft | 471 kts | 174° |
| 2026-04-22 08:49 | 36.83178 | -0.01696 | 36073 ft | 476 kts | 174° |
| 2026-04-22 08:49 | 36.79879 | -0.01159 | 35026 ft | 481 kts | 174° |
| 2026-04-22 08:50 | 36.76563 | -0.00630 | 33888 ft | 479 kts | 174° |
| 2026-04-22 08:50 | 36.73248 | -0.00105 | 32248 ft | 478 kts | 175° |
| 2026-04-22 08:50 | 36.69966 | 0.00416 | 31077 ft | 471 kts | 175° |
| 2026-04-22 08:50 | 36.66746 | 0.00934 | 30482 ft | 463 kts | 175° |
| 2026-04-22 08:51 | 36.63534 | 0.01451 | 29182 ft | 468 kts | 175° |
| 2026-04-22 08:51 | 36.60299 | 0.01972 | 27992 ft | 468 kts | 175° |
| 2026-04-22 08:51 | 36.57062 | 0.02495 | 26798 ft | 469 kts | 175° |
| 2026-04-22 08:51 | 36.53816 | 0.03020 | 25558 ft | 471 kts | 175° |
| 2026-04-22 08:52 | 36.50608 | 0.03536 | 24540 ft | 469 kts | 175° |
| 2026-04-22 08:52 | 36.47391 | 0.04053 | 23694 ft | 463 kts | 175° |
| 2026-04-22 08:52 | 36.44204 | 0.04568 | 22739 ft | 458 kts | 175° |
| 2026-04-22 08:52 | 36.41071 | 0.05076 | 21946 ft | 451 kts | 175° |
| 2026-04-22 08:53 | 36.37964 | 0.05577 | 21164 ft | 446 kts | 174° |
| 2026-04-22 08:53 | 36.34904 | 0.06067 | 20414 ft | 441 kts | 174° |
| 2026-04-22 08:53 | 36.31876 | 0.06549 | 19671 ft | 437 kts | 174° |
| 2026-04-22 08:53 | 36.28874 | 0.07029 | 18949 ft | 433 kts | 174° |
| 2026-04-22 08:54 | 36.25890 | 0.07518 | 18226 ft | 430 kts | 174° |
| 2026-04-22 08:54 | 36.22934 | 0.08019 | 17484 ft | 426 kts | 173° |
| 2026-04-22 08:54 | 36.20047 | 0.08516 | 16858 ft | 421 kts | 173° |
| 2026-04-22 08:54 | 36.17158 | 0.09014 | 16225 ft | 416 kts | 173° |
| 2026-04-22 08:55 | 36.14303 | 0.09504 | 15631 ft | 412 kts | 173° |
| 2026-04-22 08:55 | 36.11479 | 0.09982 | 15044 ft | 408 kts | 173° |
| 2026-04-22 08:55 | 36.08675 | 0.10457 | 14465 ft | 404 kts | 173° |
| 2026-04-22 08:55 | 36.05889 | 0.10930 | 13868 ft | 401 kts | 173° |
| 2026-04-22 08:56 | 36.03135 | 0.11395 | 13223 ft | 398 kts | 173° |
| 2026-04-22 08:56 | 36.00408 | 0.11853 | 12577 ft | 394 kts | 173° |
| 2026-04-22 08:56 | 35.97691 | 0.12310 | 11910 ft | 392 kts | 173° |
| 2026-04-22 08:56 | 35.94994 | 0.12743 | 11239 ft | 388 kts | 176° |
| 2026-04-22 08:57 | 35.92355 | 0.12559 | 11027 ft | 371 kts | 192° |
| 2026-04-22 08:57 | 35.89962 | 0.11623 | 10906 ft | 353 kts | 206° |
| 2026-04-22 08:57 | 35.87928 | 0.10076 | 10782 ft | 336 kts | 220° |
| 2026-04-22 08:57 | 35.86338 | 0.08072 | 10662 ft | 321 kts | 233° |
| 2026-04-22 08:58 | 35.85021 | 0.05964 | 10542 ft | 307 kts | 234° |
| 2026-04-22 08:58 | 35.83929 | 0.03787 | 10131 ft | 294 kts | 245° |
| 2026-04-22 08:58 | 35.83130 | 0.01502 | 9927 ft | 289 kts | 250° |
| 2026-04-22 08:58 | 35.82442 | -0.00827 | 9814 ft | 290 kts | 251° |
| 2026-04-22 08:59 | 35.81772 | -0.03160 | 9678 ft | 286 kts | 251° |
| 2026-04-22 08:59 | 35.81093 | -0.05448 | 9472 ft | 282 kts | 250° |
| 2026-04-22 08:59 | 35.80398 | -0.07698 | 8926 ft | 278 kts | 249° |
| 2026-04-22 08:59 | 35.79697 | -0.09880 | 8371 ft | 271 kts | 248° |
| 2026-04-22 09:00 | 35.79000 | -0.12005 | 7863 ft | 264 kts | 248° |
| 2026-04-22 09:00 | 35.78314 | -0.14076 | 7354 ft | 258 kts | 248° |
| 2026-04-22 09:00 | 35.77641 | -0.16098 | 6853 ft | 252 kts | 248° |
| 2026-04-22 09:00 | 35.76979 | -0.18081 | 6357 ft | 247 kts | 248° |
| 2026-04-22 09:01 | 35.76331 | -0.20029 | 5850 ft | 244 kts | 247° |
| 2026-04-22 09:01 | 35.75685 | -0.21941 | 5368 ft | 240 kts | 247° |
| 2026-04-22 09:01 | 35.75049 | -0.23824 | 5005 ft | 231 kts | 246° |
| 2026-04-22 09:01 | 35.74471 | -0.25542 | 5000 ft | 210 kts | 246° |
| 2026-04-22 09:02 | 35.73920 | -0.27176 | 5000 ft | 205 kts | 247° |
| 2026-04-22 09:02 | 35.73375 | -0.28794 | 5000 ft | 204 kts | 247° |
| 2026-04-22 09:02 | 35.72831 | -0.30407 | 5000 ft | 204 kts | 246° |
| 2026-04-22 09:02 | 35.72287 | -0.32020 | 5000 ft | 204 kts | 247° |
| 2026-04-22 09:03 | 35.71741 | -0.33639 | 4870 ft | 205 kts | 246° |
| 2026-04-22 09:03 | 35.71195 | -0.35257 | 4630 ft | 204 kts | 246° |
| 2026-04-22 09:03 | 35.70650 | -0.36870 | 4380 ft | 204 kts | 246° |
| 2026-04-22 09:03 | 35.70105 | -0.38484 | 4115 ft | 203 kts | 245° |
| 2026-04-22 09:04 | 35.69563 | -0.40087 | 3852 ft | 203 kts | 246° |
| 2026-04-22 09:04 | 35.69019 | -0.41693 | 3590 ft | 203 kts | 246° |
| 2026-04-22 09:04 | 35.68477 | -0.43294 | 3346 ft | 203 kts | 246° |
| 2026-04-22 09:04 | 35.67936 | -0.44893 | 3099 ft | 201 kts | 245° |
| 2026-04-22 09:05 | 35.67412 | -0.46441 | 2826 ft | 197 kts | 246° |
| 2026-04-22 09:05 | 35.66884 | -0.47998 | 2555 ft | 192 kts | 246° |
| 2026-04-22 09:05 | 35.66378 | -0.49491 | 2316 ft | 185 kts | 246° |
| 2026-04-22 09:05 | 35.65897 | -0.50907 | 2058 ft | 173 kts | 247° |
| 2026-04-22 09:06 | 35.65467 | -0.52174 | 1862 ft | 153 kts | 246° |
| 2026-04-22 09:06 | 35.65073 | -0.53333 | 1662 ft | 142 kts | 247° |
| 2026-04-22 09:06 | 35.64700 | -0.54431 | 1465 ft | 137 kts | 248° |
| 2026-04-22 09:06 | 35.64335 | -0.55504 | 1294 ft | 133 kts | 248° |
| 2026-04-22 09:07 | 35.63980 | -0.56549 | 1125 ft | 132 kts | 247° |
| 2026-04-22 09:07 | 35.63629 | -0.57582 | 940 ft | 130 kts | 245° |
| 2026-04-22 09:07 | 35.63282 | -0.58608 | 787 ft | 131 kts | 247° |
| 2026-04-22 09:07 | 35.62935 | -0.59634 | 590 ft | 129 kts | 246° |
| 2026-04-22 09:08 | 35.62592 | -0.60664 | 456 ft | 130 kts | 244° |
| 2026-04-22 09:08 | 35.62240 | -0.61681 | 310 ft | 128 kts | 244° |
| 2026-04-22 09:08 | 35.61961 | -0.62489 | 304 ft | 64 kts | 247° |
| 2026-04-22 09:08 | 35.61870 | -0.62749 | 301 ft | 21 kts | 246° |
| 2026-04-22 09:09 | 35.61767 | -0.62856 | 300 ft | 20 kts | 183° |
| 2026-04-22 09:09 | 35.61655 | -0.62797 | 304 ft | 17 kts | 138° |
| 2026-04-22 09:09 | 35.61615 | -0.62662 | 303 ft | 17 kts | 84° |
| 2026-04-22 09:09 | 35.61653 | -0.62531 | 302 ft | 15 kts | 66° |
| 2026-04-22 09:10 | 35.61693 | -0.62416 | 303 ft | 14 kts | 66° |
| 2026-04-22 09:10 | 35.61730 | -0.62309 | 304 ft | 13 kts | 67° |
| 2026-04-22 09:10 | 35.61767 | -0.62210 | 302 ft | 12 kts | 60° |
| 2026-04-22 09:10 | 35.61804 | -0.62122 | 302 ft | 11 kts | 68° |
| 2026-04-22 09:11 | 35.61828 | -0.62038 | 302 ft | 10 kts | 70° |
| 2026-04-22 09:11 | 35.61854 | -0.61952 | 303 ft | 14 kts | 68° |
| 2026-04-22 09:11 | 35.61909 | -0.61793 | 303 ft | 21 kts | 66° |
| 2026-04-22 09:11 | 35.61965 | -0.61628 | 304 ft | 21 kts | 68° |
| 2026-04-22 09:12 | 35.62015 | -0.61478 | 303 ft | 17 kts | 68° |
| 2026-04-22 09:12 | 35.61984 | -0.61369 | 306 ft | 12 kts | 153° |
| 2026-04-22 09:12 | 35.61929 | -0.61309 | 303 ft | 10 kts | 99° |
| 2026-04-22 09:12 | 35.61909 | -0.61238 | 304 ft | 8 kts | 130° |
| 2026-04-22 09:13 | 35.61876 | -0.61190 | 303 ft | 3 kts | 130° |
| 2026-04-22 09:13 | 35.61870 | -0.61181 | 303 ft | 0 kts | 130° |